createdAt,value
2016-09-30T00:00:25.430Z,87.09
2016-09-30T00:01:26.759Z,87.19
2016-09-30T00:02:25.373Z,86.52
2016-09-30T00:03:26.021Z,86.9
2016-09-30T00:04:25.698Z,87.19
2016-09-30T00:05:25.919Z,87.95
2016-09-30T00:06:26.439Z,87.76
2016-09-30T00:07:26.345Z,87.19
2016-09-30T00:08:26.322Z,87
2016-09-30T00:09:26.382Z,87.86
2016-09-30T00:10:25.776Z,87.95
2016-09-30T00:11:25.513Z,87.66
2016-09-30T00:12:25.846Z,87.48
2016-09-30T00:13:26.634Z,87.19
2016-09-30T00:14:26.373Z,87.66
2016-09-30T00:15:25.923Z,87.86
2016-09-30T00:16:25.947Z,87.66
2016-09-30T00:17:26.029Z,87.86
2016-09-30T00:18:26.999Z,88.43
2016-09-30T00:19:25.741Z,88.24
2016-09-30T00:20:27.042Z,87.95
2016-09-30T00:21:26.563Z,87.48
2016-09-30T00:22:26.700Z,87.76
2016-09-30T00:23:27.548Z,87.66
2016-09-30T00:24:26.632Z,87.66
2016-09-30T00:25:26.347Z,88.24
2016-09-30T00:26:27.339Z,87.76
2016-09-30T00:27:26.473Z,87.86
2016-09-30T00:28:27.407Z,87.66
2016-09-30T00:29:26.550Z,87.57
2016-09-30T00:30:27.218Z,87.48
2016-09-30T00:31:26.779Z,87.66
2016-09-30T00:32:27.601Z,87.48
2016-09-30T00:33:27.664Z,88.15
2016-09-30T00:34:26.986Z,88.05
2016-09-30T00:35:26.843Z,87.38
2016-09-30T00:36:26.730Z,87.86
2016-09-30T00:37:27.124Z,87.66
2016-09-30T00:38:26.603Z,87.66
2016-09-30T00:39:27.566Z,87.57
2016-09-30T00:40:27.440Z,88.72
2016-09-30T00:41:27.332Z,88.34
2016-09-30T00:42:26.948Z,87.48
2016-09-30T00:43:26.588Z,87
2016-09-30T00:44:27.074Z,87.19
2016-09-30T00:45:27.115Z,86.52
2016-09-30T00:46:27.389Z,86.61
2016-09-30T00:47:26.918Z,86.14
2016-09-30T00:48:27.076Z,86.33
2016-09-30T00:49:27.197Z,85.94
2016-09-30T00:50:26.898Z,86.14
2016-09-30T00:51:26.522Z,85.66
2016-09-30T00:52:27.333Z,85.85
2016-09-30T00:53:27.264Z,85.75
2016-09-30T00:54:27.584Z,85.47
2016-09-30T00:55:27.057Z,85.61
2016-09-30T00:56:27.214Z,85.47
2016-09-30T00:57:26.736Z,85.38
2016-09-30T00:58:26.994Z,85.61
2016-09-30T00:59:27.992Z,85.47
2016-09-30T01:00:26.994Z,85.13
2016-09-30T01:01:27.156Z,84.94
2016-09-30T01:02:27.102Z,84.75
2016-09-30T01:03:27.562Z,84.46
2016-09-30T01:04:26.802Z,85.03
2016-09-30T01:05:27.351Z,85.03
2016-09-30T01:06:27.365Z,85.13
2016-09-30T01:07:27.301Z,85.03
2016-09-30T01:08:28.076Z,85.41
2016-09-30T01:09:27.499Z,85.41
2016-09-30T01:10:27.963Z,85.32
2016-09-30T01:11:28.144Z,84.94
2016-09-30T01:12:27.403Z,85.38
2016-09-30T01:13:27.417Z,84.89
2016-09-30T01:14:27.376Z,85.09
2016-09-30T01:15:28.348Z,85.89
2016-09-30T01:16:27.162Z,85.32
2016-09-30T01:17:27.716Z,85.18
2016-09-30T01:18:28.371Z,85.09
2016-09-30T01:19:27.717Z,84.94
2016-09-30T01:20:27.625Z,85.8
2016-09-30T01:21:27.478Z,85.32
2016-09-30T01:22:27.507Z,84.84
2016-09-30T01:23:27.901Z,85.03
2016-09-30T01:24:27.599Z,85.03
2016-09-30T01:25:28.171Z,84.94
2016-09-30T01:26:27.247Z,84.94
2016-09-30T01:27:27.911Z,84.94
2016-09-30T01:28:28.247Z,84.55
2016-09-30T01:29:27.730Z,84.55
2016-09-30T01:30:29.616Z,84.46
2016-09-30T01:31:28.618Z,84.65
2016-09-30T01:32:28.192Z,84.65
2016-09-30T01:33:27.785Z,84.75
2016-09-30T01:34:28.163Z,85.03
2016-09-30T01:35:28.277Z,85.13
2016-09-30T01:36:28.057Z,85.89
2016-09-30T01:37:27.852Z,85.99
2016-09-30T01:38:27.980Z,84.94
2016-09-30T01:39:28.528Z,85.51
2016-09-30T01:40:28.133Z,85.51
2016-09-30T01:41:27.556Z,85.8
2016-09-30T01:42:28.179Z,85.8
2016-09-30T01:43:28.877Z,86.66
2016-09-30T01:44:27.799Z,86.57
2016-09-30T01:45:28.373Z,86.23
2016-09-30T01:46:28.699Z,87.23
2016-09-30T01:47:28.224Z,86.76
2016-09-30T01:48:28.201Z,86.76
2016-09-30T01:49:27.997Z,87.23
2016-09-30T01:50:28.261Z,87
2016-09-30T01:51:28.053Z,87.14
2016-09-30T01:52:28.236Z,87.09
2016-09-30T01:53:27.995Z,87.19
2016-09-30T01:54:28.229Z,86.9
2016-09-30T01:55:28.514Z,86.9
2016-09-30T01:56:28.380Z,87.66
2016-09-30T01:57:28.288Z,87.57
2016-09-30T01:58:28.359Z,88.15
2016-09-30T01:59:28.386Z,87.48
2016-09-30T02:00:28.158Z,88.43
2016-09-30T02:01:28.823Z,88.34
2016-09-30T02:02:29.309Z,88.62
2016-09-30T02:03:28.247Z,88.05
2016-09-30T02:04:28.310Z,89.2
2016-09-30T02:05:29.137Z,88.15
2016-09-30T02:06:28.922Z,88.43
2016-09-30T02:07:28.153Z,88.72
2016-09-30T02:08:28.184Z,88.62
2016-09-30T02:09:28.618Z,88.53
2016-09-30T02:10:28.925Z,88.62
2016-09-30T02:11:28.915Z,88.53
2016-09-30T02:12:28.928Z,87.76
2016-09-30T02:13:28.347Z,86.9
2016-09-30T02:14:28.840Z,86.8
2016-09-30T02:15:28.637Z,87.19
2016-09-30T02:16:28.616Z,87.48
2016-09-30T02:17:29.286Z,87.86
2016-09-30T02:18:29.137Z,87.76
2016-09-30T02:19:29.309Z,88.15
2016-09-30T02:20:28.801Z,88.24
2016-09-30T02:21:28.822Z,89.1
2016-09-30T02:22:28.933Z,87.86
2016-09-30T02:23:29.384Z,87.66
2016-09-30T02:24:29.477Z,87.66
2016-09-30T02:25:29.493Z,87.57
2016-09-30T02:26:29.566Z,87.76
2016-09-30T02:27:29.887Z,87.57
2016-09-30T02:28:30.218Z,87.38
2016-09-30T02:29:28.854Z,87.66
2016-09-30T02:30:29.651Z,87.76
2016-09-30T02:31:29.191Z,87.57
2016-09-30T02:32:29.358Z,87.86
2016-09-30T02:33:29.515Z,88.15
2016-09-30T02:34:29.241Z,87.76
2016-09-30T02:35:29.309Z,88.05
2016-09-30T02:36:29.038Z,87.95
2016-09-30T02:37:28.941Z,88.53
2016-09-30T02:38:29.988Z,88.34
2016-09-30T02:39:29.719Z,88.53
2016-09-30T02:40:29.715Z,88.81
2016-09-30T02:41:30.005Z,89.01
2016-09-30T02:42:29.254Z,89.2
2016-09-30T02:43:29.012Z,88.62
2016-09-30T02:44:30.485Z,89.29
2016-09-30T02:45:29.930Z,89.67
2016-09-30T02:46:29.468Z,89.1
2016-09-30T02:47:29.633Z,89.48
2016-09-30T02:48:29.322Z,89.77
2016-09-30T02:49:30.195Z,89.2
2016-09-30T02:50:30.195Z,89.77
2016-09-30T02:51:29.667Z,89.29
2016-09-30T02:52:29.401Z,89.48
2016-09-30T02:53:29.091Z,89.58
2016-09-30T02:54:29.702Z,89.29
2016-09-30T02:55:30.948Z,89.39
2016-09-30T02:56:29.864Z,89.01
2016-09-30T02:57:29.849Z,88.62
2016-09-30T02:58:29.189Z,89.29
2016-09-30T02:59:29.704Z,89.48
2016-09-30T03:00:30.085Z,89.48
2016-09-30T03:01:29.821Z,89.1
2016-09-30T03:02:29.991Z,89.29
2016-09-30T03:03:29.816Z,89.2
2016-09-30T03:04:30.611Z,88.91
2016-09-30T03:05:30.241Z,89.2
2016-09-30T03:06:29.804Z,88.62
2016-09-30T03:07:29.323Z,88.81
2016-09-30T03:08:30.237Z,88.72
2016-09-30T03:09:29.993Z,89.01
2016-09-30T03:10:30.490Z,88.43
2016-09-30T03:11:29.995Z,88.62
2016-09-30T03:12:30.489Z,88.24
2016-09-30T03:13:29.666Z,88.24
2016-09-30T03:14:30.162Z,88.34
2016-09-30T03:15:29.742Z,88.15
2016-09-30T03:16:30.420Z,88.05
2016-09-30T03:17:30.253Z,88.91
2016-09-30T03:18:29.789Z,88.72
2016-09-30T03:19:30.148Z,88.24
2016-09-30T03:20:29.859Z,87.95
2016-09-30T03:21:30.025Z,88.05
2016-09-30T03:22:30.189Z,88.43
2016-09-30T03:23:29.858Z,87.95
2016-09-30T03:24:30.062Z,88.43
2016-09-30T03:25:29.984Z,88.53
2016-09-30T03:26:30.859Z,88.15
2016-09-30T03:27:30.432Z,88.24
2016-09-30T03:28:30.204Z,88.43
2016-09-30T03:29:30.596Z,88.15
2016-09-30T03:30:30.397Z,88.43
2016-09-30T03:31:30.458Z,87.95
2016-09-30T03:32:30.539Z,87.95
2016-09-30T03:33:30.493Z,87.86
2016-09-30T03:34:30.375Z,88.15
2016-09-30T03:35:30.754Z,88.62
2016-09-30T03:36:30.821Z,88.05
2016-09-30T03:37:30.316Z,88.43
2016-09-30T03:38:30.923Z,88.15
2016-09-30T03:39:30.912Z,87.86
2016-09-30T03:40:30.417Z,88.34
2016-09-30T03:41:30.472Z,88.15
2016-09-30T03:42:30.067Z,88.05
2016-09-30T03:43:31.394Z,88.43
2016-09-30T03:44:30.432Z,88.15
2016-09-30T03:45:30.357Z,88.24
2016-09-30T03:46:30.168Z,88.24
2016-09-30T03:47:30.965Z,88.53
2016-09-30T03:48:30.539Z,88.81
2016-09-30T03:49:30.960Z,88.72
2016-09-30T03:50:30.920Z,88.24
2016-09-30T03:51:30.723Z,87.86
2016-09-30T03:52:30.519Z,87.76
2016-09-30T03:53:31.129Z,87.76
2016-09-30T03:54:31.642Z,87.57
2016-09-30T03:55:30.840Z,87.19
2016-09-30T03:56:31.154Z,87.38
2016-09-30T03:57:31.633Z,87.48
2016-09-30T03:58:31.221Z,87.66
2016-09-30T03:59:31.824Z,87.66
2016-09-30T04:00:31.049Z,87.76
2016-09-30T04:01:31.377Z,87.57
2016-09-30T04:02:30.624Z,87.57
2016-09-30T04:03:31.696Z,87.76
2016-09-30T04:04:30.772Z,87.76
2016-09-30T04:05:32.129Z,87.76
2016-09-30T04:06:31.065Z,87.95
2016-09-30T04:07:31.685Z,87.48
2016-09-30T04:08:31.279Z,88.24
2016-09-30T04:09:30.958Z,88.81
2016-09-30T04:10:31.692Z,88.15
2016-09-30T04:11:31.568Z,90.25
2016-09-30T04:12:31.673Z,90.06
2016-09-30T04:13:31.048Z,90.06
2016-09-30T04:14:30.443Z,90.73
2016-09-30T04:15:30.839Z,90.16
2016-09-30T04:16:31.899Z,90.63
2016-09-30T04:17:31.055Z,90.53
2016-09-30T04:18:31.467Z,90.25
2016-09-30T04:19:31.251Z,91.3
2016-09-30T04:20:32.011Z,91.02
2016-09-30T04:21:31.842Z,91.3
2016-09-30T04:22:31.715Z,91.2
2016-09-30T04:23:32.421Z,91.39
2016-09-30T04:24:31.024Z,91.11
2016-09-30T04:25:31.678Z,91.3
2016-09-30T04:26:31.176Z,91.39
2016-09-30T04:27:31.731Z,91.88
2016-09-30T04:28:32.260Z,92.16
2016-09-30T04:29:32.494Z,92.54
2016-09-30T04:30:31.975Z,91.97
2016-09-30T04:31:32.159Z,92.5
2016-09-30T04:32:32.091Z,92.11
2016-09-30T04:33:32.429Z,92.88
2016-09-30T04:34:32.195Z,92.4
2016-09-30T04:35:32.012Z,92.97
2016-09-30T04:36:32.117Z,93.16
2016-09-30T04:37:31.537Z,93.07
2016-09-30T04:38:33.005Z,92.97
2016-09-30T04:39:32.264Z,91.83
2016-09-30T04:40:32.205Z,92.21
2016-09-30T04:41:32.125Z,91.74
2016-09-30T04:42:31.791Z,90.49
2016-09-30T04:43:31.961Z,91.35
2016-09-30T04:44:31.993Z,90.3
2016-09-30T04:45:32.724Z,89.48
2016-09-30T04:46:32.129Z,88.24
2016-09-30T04:47:31.768Z,88.62
2016-09-30T04:48:31.978Z,88.05
2016-09-30T04:49:32.850Z,87.57
2016-09-30T04:50:32.786Z,87.38
2016-09-30T04:51:31.780Z,86.71
2016-09-30T04:52:32.108Z,86.43
2016-09-30T04:53:31.798Z,86.43
2016-09-30T04:54:32.544Z,86.8
2016-09-30T04:55:31.991Z,86.43
2016-09-30T04:56:31.854Z,85.75
2016-09-30T04:57:32.755Z,85.75
2016-09-30T04:58:32.024Z,85.85
2016-09-30T04:59:32.424Z,86.14
2016-09-30T05:00:32.605Z,86.71
2016-09-30T05:01:32.190Z,85.28
2016-09-30T05:02:31.963Z,84.13
2016-09-30T05:03:31.984Z,84.7
2016-09-30T05:04:31.871Z,85.09
2016-09-30T05:05:33.049Z,84.23
2016-09-30T05:06:32.696Z,83.08
2016-09-30T05:07:32.243Z,81.65
2016-09-30T05:08:32.379Z,81.26
2016-09-30T05:09:33.341Z,82.03
2016-09-30T05:10:32.732Z,83.03
2016-09-30T05:11:33.538Z,82.51
2016-09-30T05:12:32.719Z,83.17
2016-09-30T05:13:32.450Z,83.84
2016-09-30T05:14:32.290Z,84.32
2016-09-30T05:15:32.174Z,83.94
2016-09-30T05:16:32.441Z,84.61
2016-09-30T05:17:32.674Z,84.8
2016-09-30T05:18:32.572Z,84.61
2016-09-30T05:19:32.349Z,84.7
2016-09-30T05:20:32.264Z,84.23
2016-09-30T05:21:32.790Z,84.42
2016-09-30T05:22:32.748Z,83.37
2016-09-30T05:23:33.561Z,83.37
2016-09-30T05:24:32.096Z,82.89
2016-09-30T05:25:33.357Z,83.08
2016-09-30T05:26:32.604Z,83.17
2016-09-30T05:27:32.341Z,83.56
2016-09-30T05:28:33.491Z,83.08
2016-09-30T05:29:33.718Z,83.65
2016-09-30T05:30:35.149Z,83.65
2016-09-30T05:31:34.634Z,83.94
2016-09-30T05:32:32.753Z,82.79
2016-09-30T05:33:33.208Z,81.84
2016-09-30T05:34:33.212Z,81.07
2016-09-30T05:35:33.202Z,81.16
2016-09-30T05:36:35.595Z,81.02
2016-09-30T05:37:33.456Z,81.68
2016-09-30T05:38:33.036Z,81.93
2016-09-30T05:39:33.531Z,81.3
2016-09-30T05:40:33.553Z,81.11
2016-09-30T05:41:33.995Z,82.26
2016-09-30T05:42:34.315Z,81.49
2016-09-30T05:43:35.500Z,81.88
2016-09-30T05:44:33.739Z,81.84
2016-09-30T05:45:33.494Z,82.17
2016-09-30T05:46:34.209Z,82.26
2016-09-30T05:47:33.717Z,82.03
2016-09-30T05:48:33.322Z,82.54
2016-09-30T05:49:33.109Z,81.84
2016-09-30T05:50:32.965Z,82.93
2016-09-30T05:51:33.702Z,81.88
2016-09-30T05:52:33.388Z,81.88
2016-09-30T05:53:33.363Z,81.68
2016-09-30T05:54:33.104Z,81.11
2016-09-30T05:55:33.462Z,80.98
2016-09-30T05:56:33.423Z,80.54
2016-09-30T05:57:33.534Z,80.35
2016-09-30T05:58:33.161Z,80.35
2016-09-30T05:59:33.423Z,80.16
2016-09-30T06:00:33.060Z,80.54
2016-09-30T06:01:33.174Z,80.35
2016-09-30T06:02:34.045Z,80.16
2016-09-30T06:03:33.110Z,80.06
2016-09-30T06:04:33.299Z,80.73
2016-09-30T06:05:33.087Z,80.63
2016-09-30T06:06:33.351Z,80.44
2016-09-30T06:07:33.456Z,80.73
2016-09-30T06:08:33.424Z,80.82
2016-09-30T06:09:33.912Z,80.92
2016-09-30T06:10:33.653Z,80.82
2016-09-30T06:11:33.468Z,81.59
2016-09-30T06:12:34.012Z,81.11
2016-09-30T06:13:34.236Z,80.92
2016-09-30T06:14:34.122Z,81.49
2016-09-30T06:15:34.111Z,80.63
2016-09-30T06:16:32.940Z,81.02
2016-09-30T06:17:33.278Z,81.02
2016-09-30T06:18:32.980Z,81.4
2016-09-30T06:19:32.985Z,81.49
2016-09-30T06:20:33.013Z,81.49
2016-09-30T06:21:33.050Z,81.02
2016-09-30T06:22:33.079Z,80.92
2016-09-30T06:23:33.081Z,81.21
2016-09-30T06:24:33.125Z,81.02
2016-09-30T06:25:33.143Z,81.59
2016-09-30T06:26:33.106Z,80.54
2016-09-30T06:27:33.161Z,80.82
2016-09-30T06:28:33.866Z,80.44
2016-09-30T06:29:33.573Z,80.63
2016-09-30T06:30:33.744Z,80.54
2016-09-30T06:31:33.607Z,80.06
2016-09-30T06:32:33.737Z,79.96
2016-09-30T06:33:33.783Z,79.87
2016-09-30T06:34:33.840Z,79.1
2016-09-30T06:35:33.859Z,79.68
2016-09-30T06:36:34.129Z,79.43
2016-09-30T06:37:34.672Z,79.52
2016-09-30T06:38:34.811Z,78.38
2016-09-30T06:39:34.258Z,78.47
2016-09-30T06:40:34.324Z,78.57
2016-09-30T06:41:34.122Z,78.19
2016-09-30T06:42:34.875Z,78.57
2016-09-30T06:43:34.698Z,78.28
2016-09-30T06:44:34.207Z,78.19
2016-09-30T06:45:35.211Z,77.7
2016-09-30T06:46:34.275Z,77.99
2016-09-30T06:47:34.795Z,77.84
2016-09-30T06:48:34.378Z,77.65
2016-09-30T06:49:34.965Z,77.65
2016-09-30T06:50:34.468Z,77.55
2016-09-30T06:51:34.839Z,77.36
2016-09-30T06:52:34.861Z,77.65
2016-09-30T06:53:35.072Z,77.08
2016-09-30T06:54:34.159Z,77.36
2016-09-30T06:55:35.017Z,77.46
2016-09-30T06:56:35.234Z,77.17
2016-09-30T06:57:35.639Z,76.6
2016-09-30T06:58:34.621Z,75.83
2016-09-30T06:59:34.843Z,76.69
2016-09-30T07:00:34.482Z,76.31
2016-09-30T07:01:35.284Z,76.31
2016-09-30T07:02:35.042Z,76.12
2016-09-30T07:03:35.357Z,76.35
2016-09-30T07:04:35.385Z,76.73
2016-09-30T07:05:34.689Z,76.25
2016-09-30T07:06:35.012Z,75.2
2016-09-30T07:07:35.625Z,75.01
2016-09-30T07:08:35.305Z,75.58
2016-09-30T07:09:35.338Z,75.1
2016-09-30T07:10:34.783Z,74.72
2016-09-30T07:11:35.179Z,74.43
2016-09-30T07:12:35.352Z,74.05
2016-09-30T07:13:35.383Z,73.86
2016-09-30T07:14:35.091Z,74.15
2016-09-30T07:15:35.311Z,72.99
2016-09-30T07:16:34.758Z,73.57
2016-09-30T07:17:35.241Z,73.57
2016-09-30T07:18:35.231Z,73.38
2016-09-30T07:19:35.300Z,73.76
2016-09-30T07:20:35.058Z,73.76
2016-09-30T07:21:35.492Z,73.28
2016-09-30T07:22:35.465Z,73.03
2016-09-30T07:23:35.673Z,71.59
2016-09-30T07:24:34.657Z,71.4
2016-09-30T07:25:35.278Z,72.36
2016-09-30T07:26:36.117Z,71.78
2016-09-30T07:27:34.840Z,71.25
2016-09-30T07:28:35.739Z,71.5
2016-09-30T07:29:35.320Z,71.34
2016-09-30T07:30:36.169Z,70.73
2016-09-30T07:31:35.819Z,70.57
2016-09-30T07:32:35.821Z,71.78
2016-09-30T07:33:35.496Z,71.78
2016-09-30T07:34:36.077Z,71.5
2016-09-30T07:35:35.472Z,72.64
2016-09-30T07:36:35.585Z,71.59
2016-09-30T07:37:35.582Z,71.98
2016-09-30T07:38:35.366Z,72.07
2016-09-30T07:39:35.544Z,71.69
2016-09-30T07:40:36.278Z,71.31
2016-09-30T07:41:36.312Z,71.31
2016-09-30T07:42:35.308Z,71.69
2016-09-30T07:43:35.846Z,70.57
2016-09-30T07:44:35.750Z,70.09
2016-09-30T07:45:35.703Z,70.03
2016-09-30T07:46:36.497Z,70.8
2016-09-30T07:47:35.596Z,69.46
2016-09-30T07:48:35.821Z,69.56
2016-09-30T07:49:35.705Z,68.79
2016-09-30T07:50:35.961Z,69.84
2016-09-30T07:51:37.196Z,70.23
2016-09-30T07:52:35.576Z,70.23
2016-09-30T07:53:35.862Z,70.03
2016-09-30T07:54:35.598Z,69.74
2016-09-30T07:55:35.495Z,68.79
2016-09-30T07:56:35.380Z,67.92
2016-09-30T07:57:36.060Z,68.79
2016-09-30T07:58:35.440Z,68.98
2016-09-30T07:59:35.862Z,68.79
2016-09-30T08:00:35.729Z,68.5
2016-09-30T08:01:36.959Z,69.46
2016-09-30T08:02:36.898Z,69.65
2016-09-30T08:03:35.576Z,69.81
2016-09-30T08:04:36.666Z,69.65
2016-09-30T08:05:36.557Z,70.48
2016-09-30T08:06:36.982Z,69.46
2016-09-30T08:07:36.014Z,70.03
2016-09-30T08:08:36.204Z,69.93
2016-09-30T08:09:35.863Z,70.8
2016-09-30T08:10:35.753Z,70.29
2016-09-30T08:11:36.798Z,70.29
2016-09-30T08:12:36.569Z,71.72
2016-09-30T08:13:35.983Z,71.66
2016-09-30T08:14:35.952Z,69.74
2016-09-30T08:15:36.994Z,68.5
2016-09-30T08:16:37.157Z,69.74
2016-09-30T08:17:36.538Z,69.46
2016-09-30T08:18:35.857Z,68.5
2016-09-30T08:19:36.869Z,69.65
2016-09-30T08:20:36.478Z,68.69
2016-09-30T08:21:38.011Z,67.83
2016-09-30T08:22:36.724Z,67.92
2016-09-30T08:23:36.488Z,68.98
2016-09-30T08:24:36.624Z,68.5
2016-09-30T08:25:37.992Z,68.02
2016-09-30T08:26:37.282Z,68.98
2016-09-30T08:27:36.560Z,69.07
2016-09-30T08:28:36.914Z,68.79
2016-09-30T08:29:36.536Z,69.17
2016-09-30T08:30:37.291Z,68.4
2016-09-30T08:31:37.502Z,68.79
2016-09-30T08:32:36.893Z,70.13
2016-09-30T08:33:37.264Z,69.07
2016-09-30T08:34:36.296Z,69.17
2016-09-30T08:35:36.197Z,69.46
2016-09-30T08:36:36.738Z,68.79
2016-09-30T08:37:36.850Z,68.3
2016-09-30T08:38:37.221Z,69.84
2016-09-30T08:39:36.678Z,69.17
2016-09-30T08:40:37.692Z,69.46
2016-09-30T08:41:37.069Z,68.4
2016-09-30T08:42:37.081Z,68.88
2016-09-30T08:43:36.881Z,68.3
2016-09-30T08:44:36.795Z,69.81
2016-09-30T08:45:37.756Z,69.93
2016-09-30T08:46:37.195Z,68.59
2016-09-30T08:47:36.769Z,68.59
2016-09-30T08:48:36.675Z,68.69
2016-09-30T08:49:37.721Z,68.3
2016-09-30T08:50:37.275Z,68.79
2016-09-30T08:51:37.543Z,68.66
2016-09-30T08:52:37.304Z,68.95
2016-09-30T08:53:37.212Z,69.74
2016-09-30T08:54:37.460Z,69.84
2016-09-30T08:55:37.200Z,69.07
2016-09-30T08:56:37.338Z,68.79
2016-09-30T08:57:37.786Z,68.59
2016-09-30T08:58:36.902Z,69.36
2016-09-30T08:59:38.035Z,67.67
2016-09-30T09:00:37.481Z,67.29
2016-09-30T09:01:37.431Z,67.16
2016-09-30T09:02:38.062Z,67.63
2016-09-30T09:03:37.683Z,66.71
2016-09-30T09:04:37.948Z,66.61
2016-09-30T09:05:38.134Z,65.56
2016-09-30T09:06:37.509Z,65.01
2016-09-30T09:07:37.365Z,63.19
2016-09-30T09:08:37.633Z,62.58
2016-09-30T09:09:38.254Z,61.71
2016-09-30T09:10:37.496Z,60.49
2016-09-30T09:11:37.576Z,60.3
2016-09-30T09:12:37.521Z,59.82
2016-09-30T09:13:37.819Z,60.69
2016-09-30T09:14:37.137Z,61.52
2016-09-30T09:15:37.277Z,61.71
2016-09-30T09:16:37.516Z,63.25
2016-09-30T09:17:37.449Z,60.97
2016-09-30T09:18:37.877Z,60.81
2016-09-30T09:19:37.409Z,59.78
2016-09-30T09:20:37.136Z,61.58
2016-09-30T09:21:37.873Z,58.92
2016-09-30T09:22:37.601Z,58.34
2016-09-30T09:23:37.647Z,57.95
2016-09-30T09:24:38.027Z,55.93
2016-09-30T09:25:37.451Z,55.29
2016-09-30T09:26:38.179Z,55.45
2016-09-30T09:27:38.009Z,54.97
2016-09-30T09:28:38.985Z,55.23
2016-09-30T09:29:37.850Z,56.73
2016-09-30T09:30:38.125Z,51.17
2016-09-30T09:31:38.220Z,52.25
2016-09-30T09:32:38.010Z,51.82
2016-09-30T09:33:38.727Z,53.58
2016-09-30T09:34:38.288Z,55.38
2016-09-30T09:35:37.786Z,51.65
2016-09-30T09:36:38.500Z,52.71
2016-09-30T09:37:38.197Z,53.58
2016-09-30T09:38:38.300Z,53.39
2016-09-30T09:39:38.190Z,52.71
2016-09-30T09:40:37.707Z,53.23
2016-09-30T09:41:38.677Z,52.97
2016-09-30T09:42:39.125Z,52.97
2016-09-30T09:43:38.126Z,51.36
2016-09-30T09:44:37.974Z,52.11
2016-09-30T09:45:38.371Z,52.75
2016-09-30T09:46:38.193Z,52.85
2016-09-30T09:47:38.440Z,51.72
2016-09-30T09:48:38.405Z,52.18
2016-09-30T09:49:39.126Z,51.79
2016-09-30T09:50:38.471Z,52.75
2016-09-30T09:51:38.278Z,52.47
2016-09-30T09:52:38.656Z,54
2016-09-30T09:53:39.625Z,52.66
2016-09-30T09:54:38.872Z,51.34
2016-09-30T09:55:38.492Z,52.4
2016-09-30T09:56:38.910Z,52.11
2016-09-30T09:57:38.550Z,52.56
2016-09-30T09:58:38.897Z,52.66
2016-09-30T09:59:38.417Z,54.17
2016-09-30T10:00:39.243Z,54.03
2016-09-30T10:01:38.404Z,53.05
2016-09-30T10:02:38.793Z,51.62
2016-09-30T10:03:39.182Z,50.27
2016-09-30T10:04:39.020Z,50.47
2016-09-30T10:05:39.274Z,51.24
2016-09-30T10:06:39.105Z,53.4
2016-09-30T10:07:38.933Z,53.98
2016-09-30T10:08:38.931Z,52.63
2016-09-30T10:09:39.094Z,52.73
2016-09-30T10:10:39.112Z,51.67
2016-09-30T10:11:39.834Z,51.19
2016-09-30T10:12:39.747Z,52.06
2016-09-30T10:13:39.535Z,50.23
2016-09-30T10:14:40.098Z,50.99
2016-09-30T10:15:39.640Z,51.6
2016-09-30T10:16:39.171Z,50.37
2016-09-30T10:17:39.763Z,51.07
2016-09-30T10:18:39.428Z,49.53
2016-09-30T10:19:39.635Z,48.49
2016-09-30T10:20:39.405Z,47.63
2016-09-30T10:21:39.393Z,48.97
2016-09-30T10:22:39.776Z,47.82
2016-09-30T10:23:39.505Z,50.21
2016-09-30T10:24:39.624Z,47.89
2016-09-30T10:25:39.248Z,48.74
2016-09-30T10:26:39.484Z,49.7
2016-09-30T10:27:39.404Z,50.27
2016-09-30T10:28:39.488Z,49.22
2016-09-30T10:29:39.739Z,48.44
2016-09-30T10:30:39.658Z,48.86
2016-09-30T10:31:39.941Z,49.32
2016-09-30T10:32:39.962Z,49.02
2016-09-30T10:33:39.805Z,49.1
2016-09-30T10:34:39.637Z,49.51
2016-09-30T10:35:39.770Z,47.51
2016-09-30T10:36:39.671Z,44.9
2016-09-30T10:37:40.262Z,44.9
2016-09-30T10:38:39.839Z,48.28
2016-09-30T10:39:40.775Z,46.78
2016-09-30T10:40:40.301Z,43.43
2016-09-30T10:41:41.026Z,44.2
2016-09-30T10:42:40.043Z,41.98
2016-09-30T10:43:39.558Z,41.98
2016-09-30T10:44:40.089Z,44.39
2016-09-30T10:45:39.667Z,45.62
2016-09-30T10:46:39.951Z,44.37
2016-09-30T10:47:40.343Z,44.35
2016-09-30T10:48:40.108Z,44.71
2016-09-30T10:49:39.912Z,45.31
2016-09-30T10:50:40.083Z,47.99
2016-09-30T10:51:39.969Z,45
2016-09-30T10:52:40.053Z,46.35
2016-09-30T10:53:40.067Z,46.35
2016-09-30T10:54:40.780Z,44.54
2016-09-30T10:55:40.435Z,44.56
2016-09-30T10:56:40.373Z,43.41
2016-09-30T10:57:41.028Z,42.93
2016-09-30T10:58:40.015Z,43.91
2016-09-30T10:59:39.978Z,43.52
2016-09-30T11:00:39.896Z,41.5
2016-09-30T11:01:40.816Z,43.45
2016-09-30T11:02:40.541Z,42.99
2016-09-30T11:03:40.475Z,42.45
2016-09-30T11:04:40.263Z,39.18
2016-09-30T11:05:40.221Z,38.78
2016-09-30T11:06:40.908Z,39.16
2016-09-30T11:07:41.051Z,41.11
2016-09-30T11:08:40.904Z,38.99
2016-09-30T11:09:40.269Z,39.37
2016-09-30T11:10:41.247Z,37.24
2016-09-30T11:11:40.335Z,40.53
2016-09-30T11:12:40.801Z,38.81
2016-09-30T11:13:41.069Z,37.85
2016-09-30T11:15:41.072Z,36.96
2016-09-30T11:16:41.204Z,39.09
2016-09-30T11:17:41.371Z,39.45
2016-09-30T11:18:41.180Z,38.1
2016-09-30T11:19:40.850Z,36.82
2016-09-30T11:20:41.087Z,38.25
2016-09-30T11:21:40.977Z,41.03
2016-09-30T11:22:40.579Z,38.64
2016-09-30T11:23:40.759Z,39.2
2016-09-30T11:24:40.767Z,40.26
2016-09-30T11:25:40.849Z,40.92
2016-09-30T11:26:40.956Z,41.78
2016-09-30T11:27:41.679Z,42.8
2016-09-30T11:28:40.937Z,43.55
2016-09-30T11:29:41.696Z,44.13
2016-09-30T11:30:41.109Z,45.56
2016-09-30T11:31:41.702Z,44.23
2016-09-30T11:32:41.246Z,45.39
2016-09-30T11:33:41.605Z,44.04
2016-09-30T11:34:41.218Z,43.58
2016-09-30T11:35:42.218Z,45.62
2016-09-30T11:36:41.473Z,43.14
2016-09-30T11:37:42.006Z,44.37
2016-09-30T11:38:41.884Z,43.96
2016-09-30T11:39:41.874Z,44.35
2016-09-30T11:40:41.194Z,43.89
2016-09-30T11:41:41.420Z,42.93
2016-09-30T11:42:42.068Z,44.59
2016-09-30T11:43:42.256Z,42.93
2016-09-30T11:44:42.694Z,42.71
2016-09-30T11:45:42.897Z,43.27
2016-09-30T11:46:42.254Z,43.46
2016-09-30T11:47:43.120Z,45.17
2016-09-30T11:48:41.883Z,45.73
2016-09-30T11:49:42.252Z,47.7
2016-09-30T11:50:41.450Z,43.85
2016-09-30T11:51:41.711Z,44.59
2016-09-30T11:52:42.176Z,46.59
2016-09-30T11:53:41.583Z,48.03
2016-09-30T11:54:41.505Z,45.63
2016-09-30T11:55:41.945Z,45.99
2016-09-30T11:56:42.696Z,46.19
2016-09-30T11:57:41.826Z,46.77
2016-09-30T11:58:42.774Z,47.44
2016-09-30T11:59:42.436Z,48.69
2016-09-30T12:00:42.633Z,46.57
2016-09-30T12:01:42.879Z,47.44
2016-09-30T12:02:42.553Z,47.05
2016-09-30T12:03:41.899Z,48.18
2016-09-30T12:04:42.484Z,47.44
2016-09-30T12:05:42.684Z,47.89
2016-09-30T12:06:42.524Z,47.99
2016-09-30T12:07:42.240Z,48.08
2016-09-30T12:08:42.414Z,47.61
2016-09-30T12:09:43.914Z,47.61
2016-09-30T12:10:42.171Z,47.89
2016-09-30T12:11:43.285Z,50.04
2016-09-30T12:12:42.396Z,48.4
2016-09-30T12:13:42.998Z,47.24
2016-09-30T12:14:42.465Z,47.53
2016-09-30T12:15:42.844Z,47.34
2016-09-30T12:16:42.283Z,48.11
2016-09-30T12:17:43.397Z,48.49
2016-09-30T12:18:43.174Z,48.02
2016-09-30T12:19:42.682Z,50.04
2016-09-30T12:20:42.747Z,48.79
2016-09-30T12:21:42.341Z,48.49
2016-09-30T12:22:43.132Z,48.66
2016-09-30T12:23:42.879Z,49.82
2016-09-30T12:24:42.706Z,49.82
2016-09-30T12:25:42.660Z,50.01
2016-09-30T12:26:43.458Z,51.04
2016-09-30T12:27:42.785Z,49.89
2016-09-30T12:28:43.288Z,50.3
2016-09-30T12:29:43.460Z,52.03
2016-09-30T12:30:42.881Z,50.49
2016-09-30T12:31:42.412Z,51.09
2016-09-30T12:32:42.745Z,49.94
2016-09-30T12:33:43.584Z,49.05
2016-09-30T12:34:44.355Z,48.47
2016-09-30T12:35:42.568Z,48.28
2016-09-30T12:36:43.170Z,48.38
2016-09-30T12:37:43.919Z,49.43
2016-09-30T12:38:43.110Z,48.66
2016-09-30T12:39:43.277Z,48.02
2016-09-30T12:40:42.759Z,48.3
2016-09-30T12:41:43.512Z,47.82
2016-09-30T12:42:43.406Z,47.44
2016-09-30T12:43:44.716Z,47.34
2016-09-30T12:44:43.806Z,48.02
2016-09-30T12:45:43.301Z,47.82
2016-09-30T12:46:43.888Z,47.53
2016-09-30T12:47:43.601Z,47.63
2016-09-30T12:48:43.797Z,47.92
2016-09-30T12:49:43.070Z,49.27
2016-09-30T12:50:43.623Z,45.83
2016-09-30T12:51:44.156Z,46.62
2016-09-30T12:52:43.285Z,47.29
2016-09-30T12:53:44.428Z,46.52
2016-09-30T12:54:43.960Z,46.67
2016-09-30T12:55:43.911Z,47.27
2016-09-30T12:56:44.088Z,45.65